sensor_id;sensor_type;location;lat;lon;timestamp;temperature;humidity
7445;DHT22;3764;48.126;11.594;2023-04-03T00:01:48;4.20;99.90
7445;DHT22;3764;48.126;11.594;2023-04-03T00:04:16;4.20;99.90
7445;DHT22;3764;48.126;11.594;2023-04-03T00:06:43;4.20;99.90
7445;DHT22;3764;48.126;11.594;2023-04-03T00:09:10;4.30;99.90
7445;DHT22;3764;48.126;11.594;2023-04-03T00:11:37;4.20;99.90
7445;DHT22;3764;48.126;11.594;2023-04-03T00:14:04;4.20;99.90
7445;DHT22;3764;48.126;11.594;2023-04-03T00:16:31;4.10;99.90
7445;DHT22;3764;48.126;11.594;2023-04-03T00:18:59;4.00;99.90
7445;DHT22;3764;48.126;11.594;2023-04-03T00:21:27;4.00;99.90
7445;DHT22;3764;48.126;11.594;2023-04-03T00:23:54;3.90;99.90
7445;DHT22;3764;48.126;11.594;2023-04-03T00:26:21;4.00;99.90
7445;DHT22;3764;48.126;11.594;2023-04-03T00:28:48;4.00;99.90
7445;DHT22;3764;48.126;11.594;2023-04-03T00:31:15;4.00;99.90
7445;DHT22;3764;48.126;11.594;2023-04-03T00:33:42;4.10;99.90
7445;DHT22;3764;48.126;11.594;2023-04-03T00:36:11;4.10;99.90
7445;DHT22;3764;48.126;11.594;2023-04-03T00:38:40;4.10;99.90
7445;DHT22;3764;48.126;11.594;2023-04-03T00:41:07;4.00;99.90
7445;DHT22;3764;48.126;11.594;2023-04-03T00:43:34;3.90;99.90
7445;DHT22;3764;48.126;11.594;2023-04-03T00:46:02;4.00;99.90
7445;DHT22;3764;48.126;11.594;2023-04-03T00:48:31;4.00;99.90
7445;DHT22;3764;48.126;11.594;2023-04-03T00:50:59;4.10;99.90
7445;DHT22;3764;48.126;11.594;2023-04-03T00:53:31;4.10;99.90
7445;DHT22;3764;48.126;11.594;2023-04-03T00:56:02;4.10;99.90
7445;DHT22;3764;48.126;11.594;2023-04-03T00:58:34;4.10;99.90
7445;DHT22;3764;48.126;11.594;2023-04-03T01:01:06;4.20;99.90
7445;DHT22;3764;48.126;11.594;2023-04-03T01:03:35;4.20;99.90
7445;DHT22;3764;48.126;11.594;2023-04-03T01:06:02;4.20;99.90
7445;DHT22;3764;48.126;11.594;2023-04-03T01:08:29;4.10;99.90
7445;DHT22;3764;48.126;11.594;2023-04-03T01:10:57;4.10;99.90
7445;DHT22;3764;48.126;11.594;2023-04-03T01:13:28;4.10;99.90
7445;DHT22;3764;48.126;11.594;2023-04-03T01:15:56;4.20;99.90
7445;DHT22;3764;48.126;11.594;2023-04-03T01:18:24;4.10;99.90
7445;DHT22;3764;48.126;11.594;2023-04-03T01:21:23;4.10;99.90
7445;DHT22;3764;48.126;11.594;2023-04-03T01:24:11;4.20;99.90
7445;DHT22;3764;48.126;11.594;2023-04-03T01:26:40;4.10;99.90
7445;DHT22;3764;48.126;11.594;2023-04-03T01:29:09;4.10;99.90
7445;DHT22;3764;48.126;11.594;2023-04-03T01:31:52;4.10;99.90
7445;DHT22;3764;48.126;11.594;2023-04-03T01:34:20;4.00;99.90
7445;DHT22;3764;48.126;11.594;2023-04-03T01:36:47;4.00;99.90
7445;DHT22;3764;48.126;11.594;2023-04-03T01:39:14;3.90;99.90
7445;DHT22;3764;48.126;11.594;2023-04-03T01:41:41;3.90;99.90
7445;DHT22;3764;48.126;11.594;2023-04-03T01:44:08;4.00;99.90
7445;DHT22;3764;48.126;11.594;2023-04-03T01:46:35;3.90;99.90
7445;DHT22;3764;48.126;11.594;2023-04-03T01:49:04;3.90;99.90
7445;DHT22;3764;48.126;11.594;2023-04-03T01:51:32;4.00;99.90
7445;DHT22;3764;48.126;11.594;2023-04-03T01:53:59;4.00;99.90
7445;DHT22;3764;48.126;11.594;2023-04-03T01:56:26;4.00;99.90
7445;DHT22;3764;48.126;11.594;2023-04-03T01:58:53;4.00;99.90
7445;DHT22;3764;48.126;11.594;2023-04-03T02:01:20;4.00;99.90
7445;DHT22;3764;48.126;11.594;2023-04-03T02:03:47;3.90;99.90
7445;DHT22;3764;48.126;11.594;2023-04-03T02:06:16;3.90;99.90
7445;DHT22;3764;48.126;11.594;2023-04-03T02:08:43;4.00;99.90
7445;DHT22;3764;48.126;11.594;2023-04-03T02:11:10;4.10;99.90
7445;DHT22;3764;48.126;11.594;2023-04-03T02:13:37;4.20;99.90
7445;DHT22;3764;48.126;11.594;2023-04-03T02:16:08;4.20;99.90
7445;DHT22;3764;48.126;11.594;2023-04-03T02:18:36;4.20;99.90
7445;DHT22;3764;48.126;11.594;2023-04-03T02:21:04;4.10;99.90
7445;DHT22;3764;48.126;11.594;2023-04-03T02:23:33;4.10;99.90
7445;DHT22;3764;48.126;11.594;2023-04-03T02:26:10;4.20;99.90
7445;DHT22;3764;48.126;11.594;2023-04-03T02:28:37;4.20;99.90
7445;DHT22;3764;48.126;11.594;2023-04-03T02:31:05;4.20;99.90
7445;DHT22;3764;48.126;11.594;2023-04-03T02:33:33;4.20;99.90
7445;DHT22;3764;48.126;11.594;2023-04-03T02:36:02;4.20;99.90
7445;DHT22;3764;48.126;11.594;2023-04-03T02:38:31;4.20;99.90
7445;DHT22;3764;48.126;11.594;2023-04-03T02:41:00;4.20;99.90
7445;DHT22;3764;48.126;11.594;2023-04-03T02:43:28;4.10;99.90
7445;DHT22;3764;48.126;11.594;2023-04-03T02:45:55;4.10;99.90
7445;DHT22;3764;48.126;11.594;2023-04-03T02:48:22;4.10;99.90
7445;DHT22;3764;48.126;11.594;2023-04-03T02:50:49;4.10;99.90
7445;DHT22;3764;48.126;11.594;2023-04-03T02:53:16;4.20;99.90
7445;DHT22;3764;48.126;11.594;2023-04-03T02:55:45;4.30;99.90
7445;DHT22;3764;48.126;11.594;2023-04-03T02:58:12;4.30;99.90
7445;DHT22;3764;48.126;11.594;2023-04-03T03:00:40;4.30;99.90
7445;DHT22;3764;48.126;11.594;2023-04-03T03:03:07;4.30;99.90
7445;DHT22;3764;48.126;11.594;2023-04-03T03:05:34;4.30;99.90
7445;DHT22;3764;48.126;11.594;2023-04-03T03:08:01;4.30;99.90
7445;DHT22;3764;48.126;11.594;2023-04-03T03:10:28;4.20;99.90
7445;DHT22;3764;48.126;11.594;2023-04-03T03:12:57;4.10;99.90
7445;DHT22;3764;48.126;11.594;2023-04-03T03:15:24;4.00;99.90
7445;DHT22;3764;48.126;11.594;2023-04-03T03:17:51;4.00;99.90
7445;DHT22;3764;48.126;11.594;2023-04-03T03:20:18;4.00;99.90
7445;DHT22;3764;48.126;11.594;2023-04-03T03:22:46;4.00;99.90
7445;DHT22;3764;48.126;11.594;2023-04-03T03:25:13;4.10;99.90
7445;DHT22;3764;48.126;11.594;2023-04-03T03:27:40;4.00;99.90
7445;DHT22;3764;48.126;11.594;2023-04-03T03:30:09;4.00;99.90
7445;DHT22;3764;48.126;11.594;2023-04-03T03:32:37;4.10;99.90
7445;DHT22;3764;48.126;11.594;2023-04-03T03:35:04;4.10;99.90
7445;DHT22;3764;48.126;11.594;2023-04-03T03:37:31;4.10;99.90
7445;DHT22;3764;48.126;11.594;2023-04-03T03:39:58;4.10;99.90
7445;DHT22;3764;48.126;11.594;2023-04-03T03:42:25;4.00;99.90
7445;DHT22;3764;48.126;11.594;2023-04-03T03:44:52;4.10;99.90
7445;DHT22;3764;48.126;11.594;2023-04-03T03:47:21;4.00;99.90
7445;DHT22;3764;48.126;11.594;2023-04-03T03:49:48;4.00;99.90
7445;DHT22;3764;48.126;11.594;2023-04-03T03:52:15;4.10;99.90
7445;DHT22;3764;48.126;11.594;2023-04-03T03:54:42;4.10;99.90
7445;DHT22;3764;48.126;11.594;2023-04-03T03:57:09;4.10;99.90
7445;DHT22;3764;48.126;11.594;2023-04-03T03:59:36;4.10;99.90
7445;DHT22;3764;48.126;11.594;2023-04-03T04:02:03;4.10;99.90
7445;DHT22;3764;48.126;11.594;2023-04-03T04:04:32;4.10;99.90
7445;DHT22;3764;48.126;11.594;2023-04-03T04:06:59;4.10;99.90
7445;DHT22;3764;48.126;11.594;2023-04-03T04:09:26;4.20;99.90
7445;DHT22;3764;48.126;11.594;2023-04-03T04:11:54;4.20;99.90
7445;DHT22;3764;48.126;11.594;2023-04-03T04:14:21;4.20;99.90
7445;DHT22;3764;48.126;11.594;2023-04-03T04:16:48;4.30;99.90
7445;DHT22;3764;48.126;11.594;2023-04-03T04:19:15;4.20;99.90
7445;DHT22;3764;48.126;11.594;2023-04-03T04:21:43;4.10;99.90
7445;DHT22;3764;48.126;11.594;2023-04-03T04:24:11;4.10;99.90
7445;DHT22;3764;48.126;11.594;2023-04-03T04:26:38;4.00;99.90
7445;DHT22;3764;48.126;11.594;2023-04-03T04:29:05;4.00;99.90
7445;DHT22;3764;48.126;11.594;2023-04-03T04:31:32;3.90;99.90
7445;DHT22;3764;48.126;11.594;2023-04-03T04:33:59;3.90;99.90
7445;DHT22;3764;48.126;11.594;2023-04-03T04:36:26;3.90;99.90
7445;DHT22;3764;48.126;11.594;2023-04-03T04:38:54;4.00;99.90
7445;DHT22;3764;48.126;11.594;2023-04-03T04:41:22;4.00;99.90
7445;DHT22;3764;48.126;11.594;2023-04-03T04:43:50;4.00;99.90
7445;DHT22;3764;48.126;11.594;2023-04-03T04:46:17;4.00;99.90
7445;DHT22;3764;48.126;11.594;2023-04-03T04:48:45;4.00;99.90
7445;DHT22;3764;48.126;11.594;2023-04-03T04:51:12;4.00;99.90
7445;DHT22;3764;48.126;11.594;2023-04-03T04:53:39;4.00;99.90
7445;DHT22;3764;48.126;11.594;2023-04-03T04:56:07;4.00;99.90
7445;DHT22;3764;48.126;11.594;2023-04-03T04:58:34;4.00;99.90
7445;DHT22;3764;48.126;11.594;2023-04-03T05:01:02;3.90;99.90
7445;DHT22;3764;48.126;11.594;2023-04-03T05:03:30;3.90;99.90
7445;DHT22;3764;48.126;11.594;2023-04-03T05:05:57;3.90;99.90
7445;DHT22;3764;48.126;11.594;2023-04-03T05:08:24;4.00;99.90
7445;DHT22;3764;48.126;11.594;2023-04-03T05:10:51;4.00;99.90
7445;DHT22;3764;48.126;11.594;2023-04-03T05:13:20;4.00;99.90
7445;DHT22;3764;48.126;11.594;2023-04-03T05:15:47;4.00;99.90
7445;DHT22;3764;48.126;11.594;2023-04-03T05:18:14;3.90;99.90
7445;DHT22;3764;48.126;11.594;2023-04-03T05:20:41;3.80;99.90
7445;DHT22;3764;48.126;11.594;2023-04-03T05:23:09;3.80;99.90
7445;DHT22;3764;48.126;11.594;2023-04-03T05:25:37;3.90;99.90
7445;DHT22;3764;48.126;11.594;2023-04-03T05:28:05;3.90;99.90
7445;DHT22;3764;48.126;11.594;2023-04-03T05:30:33;4.00;99.90
7445;DHT22;3764;48.126;11.594;2023-04-03T05:33:01;4.10;99.90
7445;DHT22;3764;48.126;11.594;2023-04-03T05:35:28;4.10;99.90
7445;DHT22;3764;48.126;11.594;2023-04-03T05:37:55;4.00;99.90
7445;DHT22;3764;48.126;11.594;2023-04-03T05:40:23;4.00;99.90
7445;DHT22;3764;48.126;11.594;2023-04-03T05:42:50;4.00;99.90
7445;DHT22;3764;48.126;11.594;2023-04-03T05:45:19;4.00;99.90
7445;DHT22;3764;48.126;11.594;2023-04-03T05:47:47;4.00;99.90
7445;DHT22;3764;48.126;11.594;2023-04-03T05:50:15;4.00;99.90
7445;DHT22;3764;48.126;11.594;2023-04-03T05:52:44;4.10;99.90
7445;DHT22;3764;48.126;11.594;2023-04-03T05:55:12;4.10;99.90
7445;DHT22;3764;48.126;11.594;2023-04-03T05:57:39;4.10;99.90
7445;DHT22;3764;48.126;11.594;2023-04-03T06:00:08;4.10;99.90
7445;DHT22;3764;48.126;11.594;2023-04-03T06:02:36;4.10;99.90
7445;DHT22;3764;48.126;11.594;2023-04-03T06:05:05;4.10;99.90
7445;DHT22;3764;48.126;11.594;2023-04-03T06:07:32;4.00;99.90
7445;DHT22;3764;48.126;11.594;2023-04-03T06:10:00;4.00;99.90
7445;DHT22;3764;48.126;11.594;2023-04-03T06:12:27;4.00;99.90
7445;DHT22;3764;48.126;11.594;2023-04-03T06:14:55;4.00;99.90
7445;DHT22;3764;48.126;11.594;2023-04-03T06:17:22;3.90;99.90
7445;DHT22;3764;48.126;11.594;2023-04-03T06:19:50;3.80;99.90
7445;DHT22;3764;48.126;11.594;2023-04-03T06:22:18;3.80;99.90
7445;DHT22;3764;48.126;11.594;2023-04-03T06:24:45;3.90;99.90
7445;DHT22;3764;48.126;11.594;2023-04-03T06:27:12;3.90;99.90
7445;DHT22;3764;48.126;11.594;2023-04-03T06:29:39;4.00;99.90
7445;DHT22;3764;48.126;11.594;2023-04-03T06:32:06;4.00;99.90
7445;DHT22;3764;48.126;11.594;2023-04-03T06:34:33;4.00;99.90
7445;DHT22;3764;48.126;11.594;2023-04-03T06:37:01;4.00;99.90
7445;DHT22;3764;48.126;11.594;2023-04-03T06:39:29;4.00;99.90
7445;DHT22;3764;48.126;11.594;2023-04-03T06:41:56;4.00;99.90
7445;DHT22;3764;48.126;11.594;2023-04-03T06:44:23;4.00;99.90
7445;DHT22;3764;48.126;11.594;2023-04-03T06:46:50;4.00;99.90
7445;DHT22;3764;48.126;11.594;2023-04-03T06:49:18;4.00;99.90
7445;DHT22;3764;48.126;11.594;2023-04-03T06:51:45;4.10;99.90
7445;DHT22;3764;48.126;11.594;2023-04-03T06:54:12;4.10;99.90
7445;DHT22;3764;48.126;11.594;2023-04-03T06:56:41;4.10;99.90
7445;DHT22;3764;48.126;11.594;2023-04-03T06:59:10;4.10;99.90
7445;DHT22;3764;48.126;11.594;2023-04-03T07:01:37;4.00;99.90
7445;DHT22;3764;48.126;11.594;2023-04-03T07:04:04;4.00;99.90
7445;DHT22;3764;48.126;11.594;2023-04-03T07:06:31;3.90;99.90
7445;DHT22;3764;48.126;11.594;2023-04-03T07:08:59;4.00;99.90
7445;DHT22;3764;48.126;11.594;2023-04-03T07:11:26;4.00;99.90
7445;DHT22;3764;48.126;11.594;2023-04-03T07:13:55;4.10;99.90
7445;DHT22;3764;48.126;11.594;2023-04-03T07:16:22;4.20;99.90
7445;DHT22;3764;48.126;11.594;2023-04-03T07:18:49;4.30;99.90
7445;DHT22;3764;48.126;11.594;2023-04-03T07:21:16;4.30;99.90
7445;DHT22;3764;48.126;11.594;2023-04-03T07:23:44;4.30;99.90
7445;DHT22;3764;48.126;11.594;2023-04-03T07:26:11;4.30;99.90
7445;DHT22;3764;48.126;11.594;2023-04-03T07:28:38;4.30;99.90
7445;DHT22;3764;48.126;11.594;2023-04-03T07:31:11;4.30;99.90
7445;DHT22;3764;48.126;11.594;2023-04-03T07:33:40;4.30;99.90
7445;DHT22;3764;48.126;11.594;2023-04-03T07:36:08;4.40;99.90
7445;DHT22;3764;48.126;11.594;2023-04-03T07:38:35;4.30;99.90
7445;DHT22;3764;48.126;11.594;2023-04-03T07:41:04;4.30;99.90
7445;DHT22;3764;48.126;11.594;2023-04-03T07:43:31;4.30;99.90
7445;DHT22;3764;48.126;11.594;2023-04-03T07:45:58;4.30;99.90
7445;DHT22;3764;48.126;11.594;2023-04-03T07:48:27;4.30;99.90
7445;DHT22;3764;48.126;11.594;2023-04-03T07:50:59;4.40;99.90
7445;DHT22;3764;48.126;11.594;2023-04-03T07:53:26;4.40;99.90
7445;DHT22;3764;48.126;11.594;2023-04-03T07:55:53;4.30;99.90
7445;DHT22;3764;48.126;11.594;2023-04-03T07:58:22;4.30;99.90
7445;DHT22;3764;48.126;11.594;2023-04-03T08:00:49;4.40;99.90
7445;DHT22;3764;48.126;11.594;2023-04-03T08:03:16;4.40;99.90
7445;DHT22;3764;48.126;11.594;2023-04-03T08:05:46;4.30;99.90
7445;DHT22;3764;48.126;11.594;2023-04-03T08:08:16;4.30;99.90
7445;DHT22;3764;48.126;11.594;2023-04-03T08:10:43;4.30;99.90
7445;DHT22;3764;48.126;11.594;2023-04-03T08:13:10;4.30;99.90
7445;DHT22;3764;48.126;11.594;2023-04-03T08:15:37;4.30;99.90
7445;DHT22;3764;48.126;11.594;2023-04-03T08:18:05;4.30;99.90
7445;DHT22;3764;48.126;11.594;2023-04-03T08:20:32;4.40;99.90
7445;DHT22;3764;48.126;11.594;2023-04-03T08:23:00;4.40;99.90
7445;DHT22;3764;48.126;11.594;2023-04-03T08:25:27;4.40;99.90
7445;DHT22;3764;48.126;11.594;2023-04-03T08:27:55;4.40;99.90
7445;DHT22;3764;48.126;11.594;2023-04-03T08:30:22;4.40;99.90
7445;DHT22;3764;48.126;11.594;2023-04-03T08:32:49;4.50;99.90
7445;DHT22;3764;48.126;11.594;2023-04-03T08:35:17;4.50;99.90
7445;DHT22;3764;48.126;11.594;2023-04-03T08:37:45;4.50;99.90
7445;DHT22;3764;48.126;11.594;2023-04-03T08:40:15;4.60;99.90
7445;DHT22;3764;48.126;11.594;2023-04-03T08:42:54;4.60;99.90
7445;DHT22;3764;48.126;11.594;2023-04-03T08:45:30;4.60;99.90
7445;DHT22;3764;48.126;11.594;2023-04-03T08:48:03;4.60;99.90
7445;DHT22;3764;48.126;11.594;2023-04-03T08:50:37;4.70;99.90
7445;DHT22;3764;48.126;11.594;2023-04-03T08:53:13;4.70;99.90
7445;DHT22;3764;48.126;11.594;2023-04-03T08:55:44;4.70;99.90
7445;DHT22;3764;48.126;11.594;2023-04-03T08:58:14;4.60;99.90
7445;DHT22;3764;48.126;11.594;2023-04-03T09:00:45;4.60;99.90
7445;DHT22;3764;48.126;11.594;2023-04-03T09:03:17;4.70;99.90
7445;DHT22;3764;48.126;11.594;2023-04-03T09:05:48;4.60;99.90
7445;DHT22;3764;48.126;11.594;2023-04-03T09:08:23;4.70;99.90
7445;DHT22;3764;48.126;11.594;2023-04-03T09:11:23;4.70;99.90
7445;DHT22;3764;48.126;11.594;2023-04-03T09:13:56;4.70;99.90
7445;DHT22;3764;48.126;11.594;2023-04-03T09:16:33;4.70;99.90
7445;DHT22;3764;48.126;11.594;2023-04-03T09:19:11;4.70;99.90
7445;DHT22;3764;48.126;11.594;2023-04-03T09:21:41;4.70;99.90
7445;DHT22;3764;48.126;11.594;2023-04-03T09:24:11;4.70;99.90
7445;DHT22;3764;48.126;11.594;2023-04-03T09:26:43;4.70;99.90
7445;DHT22;3764;48.126;11.594;2023-04-03T09:29:17;4.80;99.90
7445;DHT22;3764;48.126;11.594;2023-04-03T09:31:48;4.80;99.90
7445;DHT22;3764;48.126;11.594;2023-04-03T09:34:20;4.80;99.90
7445;DHT22;3764;48.126;11.594;2023-04-03T09:36:49;4.90;99.90
7445;DHT22;3764;48.126;11.594;2023-04-03T09:39:18;5.00;99.90
7445;DHT22;3764;48.126;11.594;2023-04-03T09:41:59;5.00;99.90
7445;DHT22;3764;48.126;11.594;2023-04-03T09:44:30;5.10;99.90
7445;DHT22;3764;48.126;11.594;2023-04-03T09:46:57;5.10;99.90
7445;DHT22;3764;48.126;11.594;2023-04-03T09:49:25;5.10;99.90
7445;DHT22;3764;48.126;11.594;2023-04-03T09:51:52;5.10;99.90
7445;DHT22;3764;48.126;11.594;2023-04-03T09:54:31;5.10;99.90
7445;DHT22;3764;48.126;11.594;2023-04-03T09:57:06;5.00;99.90
7445;DHT22;3764;48.126;11.594;2023-04-03T09:59:33;5.00;99.90
7445;DHT22;3764;48.126;11.594;2023-04-03T10:02:03;5.00;99.90
7445;DHT22;3764;48.126;11.594;2023-04-03T10:04:39;5.00;99.90
7445;DHT22;3764;48.126;11.594;2023-04-03T10:07:29;5.00;99.90
7445;DHT22;3764;48.126;11.594;2023-04-03T10:09:58;5.10;99.90
7445;DHT22;3764;48.126;11.594;2023-04-03T10:12:27;5.10;99.90
7445;DHT22;3764;48.126;11.594;2023-04-03T10:14:56;5.20;99.90
7445;DHT22;3764;48.126;11.594;2023-04-03T10:17:31;5.20;99.90
7445;DHT22;3764;48.126;11.594;2023-04-03T10:20:07;5.30;99.90
7445;DHT22;3764;48.126;11.594;2023-04-03T10:22:42;5.40;99.90
7445;DHT22;3764;48.126;11.594;2023-04-03T10:25:20;5.30;99.90
7445;DHT22;3764;48.126;11.594;2023-04-03T10:27:53;5.30;99.90
7445;DHT22;3764;48.126;11.594;2023-04-03T10:30:39;5.30;99.90
7445;DHT22;3764;48.126;11.594;2023-04-03T10:33:23;5.30;99.90
7445;DHT22;3764;48.126;11.594;2023-04-03T10:36:16;5.10;99.90
7445;DHT22;3764;48.126;11.594;2023-04-03T10:38:54;5.10;99.90
7445;DHT22;3764;48.126;11.594;2023-04-03T10:41:32;5.00;99.90
7445;DHT22;3764;48.126;11.594;2023-04-03T10:44:09;4.90;99.90
7445;DHT22;3764;48.126;11.594;2023-04-03T10:46:41;4.80;99.90
7445;DHT22;3764;48.126;11.594;2023-04-03T10:49:22;4.70;99.90
7445;DHT22;3764;48.126;11.594;2023-04-03T10:51:58;4.70;99.90
7445;DHT22;3764;48.126;11.594;2023-04-03T10:54:34;4.60;99.90
7445;DHT22;3764;48.126;11.594;2023-04-03T10:57:05;4.60;99.90
7445;DHT22;3764;48.126;11.594;2023-04-03T10:59:38;4.60;99.90
7445;DHT22;3764;48.126;11.594;2023-04-03T11:02:07;4.60;99.90
7445;DHT22;3764;48.126;11.594;2023-04-03T11:04:40;4.60;99.90
7445;DHT22;3764;48.126;11.594;2023-04-03T11:07:10;4.50;99.90
7445;DHT22;3764;48.126;11.594;2023-04-03T11:09:42;4.60;99.90
7445;DHT22;3764;48.126;11.594;2023-04-03T11:12:14;4.50;99.90
7445;DHT22;3764;48.126;11.594;2023-04-03T11:14:47;4.60;99.90
7445;DHT22;3764;48.126;11.594;2023-04-03T11:17:23;4.50;99.90
7445;DHT22;3764;48.126;11.594;2023-04-03T11:20:01;4.50;99.90
7445;DHT22;3764;48.126;11.594;2023-04-03T11:22:33;4.40;99.90
7445;DHT22;3764;48.126;11.594;2023-04-03T11:25:04;4.50;99.90
7445;DHT22;3764;48.126;11.594;2023-04-03T11:27:38;4.60;99.90
7445;DHT22;3764;48.126;11.594;2023-04-03T11:30:14;4.60;99.90
7445;DHT22;3764;48.126;11.594;2023-04-03T11:33:00;4.70;99.90
7445;DHT22;3764;48.126;11.594;2023-04-03T11:35:31;4.70;99.90
7445;DHT22;3764;48.126;11.594;2023-04-03T11:38:00;4.70;99.90
7445;DHT22;3764;48.126;11.594;2023-04-03T11:40:30;4.80;99.90
7445;DHT22;3764;48.126;11.594;2023-04-03T11:43:06;4.80;99.90
7445;DHT22;3764;48.126;11.594;2023-04-03T11:45:37;4.80;99.90
7445;DHT22;3764;48.126;11.594;2023-04-03T11:48:06;4.80;99.90
7445;DHT22;3764;48.126;11.594;2023-04-03T11:50:41;4.80;99.90
7445;DHT22;3764;48.126;11.594;2023-04-03T11:53:28;4.80;99.90
7445;DHT22;3764;48.126;11.594;2023-04-03T11:55:57;4.80;99.90
7445;DHT22;3764;48.126;11.594;2023-04-03T11:58:26;4.90;99.90
7445;DHT22;3764;48.126;11.594;2023-04-03T12:01:03;4.90;99.90
7445;DHT22;3764;48.126;11.594;2023-04-03T12:04:05;5.00;99.90
7445;DHT22;3764;48.126;11.594;2023-04-03T12:06:53;4.90;99.90
7445;DHT22;3764;48.126;11.594;2023-04-03T12:09:26;5.00;99.90
7445;DHT22;3764;48.126;11.594;2023-04-03T12:11:55;5.10;99.90
7445;DHT22;3764;48.126;11.594;2023-04-03T12:14:23;5.10;99.90
7445;DHT22;3764;48.126;11.594;2023-04-03T12:16:53;5.20;99.90
7445;DHT22;3764;48.126;11.594;2023-04-03T12:19:33;5.20;99.90
7445;DHT22;3764;48.126;11.594;2023-04-03T12:22:12;5.30;99.90
7445;DHT22;3764;48.126;11.594;2023-04-03T12:24:41;5.30;99.90
7445;DHT22;3764;48.126;11.594;2023-04-03T12:27:23;5.30;99.90
7445;DHT22;3764;48.126;11.594;2023-04-03T12:29:55;5.30;99.90
7445;DHT22;3764;48.126;11.594;2023-04-03T12:32:34;5.30;99.90
7445;DHT22;3764;48.126;11.594;2023-04-03T12:35:14;5.40;99.90
7445;DHT22;3764;48.126;11.594;2023-04-03T12:37:59;5.40;99.90
7445;DHT22;3764;48.126;11.594;2023-04-03T12:40:31;5.40;99.90
7445;DHT22;3764;48.126;11.594;2023-04-03T12:43:24;5.40;99.90
7445;DHT22;3764;48.126;11.594;2023-04-03T12:45:59;5.40;99.90
7445;DHT22;3764;48.126;11.594;2023-04-03T12:48:30;5.50;99.90
7445;DHT22;3764;48.126;11.594;2023-04-03T12:51:00;5.60;99.90
7445;DHT22;3764;48.126;11.594;2023-04-03T12:53:28;5.70;99.90
7445;DHT22;3764;48.126;11.594;2023-04-03T12:56:21;5.80;99.90
7445;DHT22;3764;48.126;11.594;2023-04-03T12:58:49;5.90;99.90
7445;DHT22;3764;48.126;11.594;2023-04-03T13:01:18;6.00;99.90
7445;DHT22;3764;48.126;11.594;2023-04-03T13:03:49;6.00;99.90
7445;DHT22;3764;48.126;11.594;2023-04-03T13:06:21;6.10;99.90
7445;DHT22;3764;48.126;11.594;2023-04-03T13:08:50;6.10;99.90
7445;DHT22;3764;48.126;11.594;2023-04-03T13:11:18;6.10;99.90
7445;DHT22;3764;48.126;11.594;2023-04-03T13:13:58;6.10;99.90
7445;DHT22;3764;48.126;11.594;2023-04-03T13:16:26;6.10;99.90
7445;DHT22;3764;48.126;11.594;2023-04-03T13:18:55;6.10;99.90
7445;DHT22;3764;48.126;11.594;2023-04-03T13:21:27;6.10;99.90
7445;DHT22;3764;48.126;11.594;2023-04-03T13:23:57;6.20;99.90
7445;DHT22;3764;48.126;11.594;2023-04-03T13:26:28;6.30;99.90
7445;DHT22;3764;48.126;11.594;2023-04-03T13:29:00;6.40;99.90
7445;DHT22;3764;48.126;11.594;2023-04-03T13:31:32;6.70;99.90
7445;DHT22;3764;48.126;11.594;2023-04-03T13:34:03;7.00;99.90
7445;DHT22;3764;48.126;11.594;2023-04-03T13:36:35;7.30;99.90
7445;DHT22;3764;48.126;11.594;2023-04-03T13:39:05;7.30;99.90
7445;DHT22;3764;48.126;11.594;2023-04-03T13:41:35;7.30;99.90
7445;DHT22;3764;48.126;11.594;2023-04-03T13:44:28;7.20;99.90
7445;DHT22;3764;48.126;11.594;2023-04-03T13:46:57;7.10;99.90
7445;DHT22;3764;48.126;11.594;2023-04-03T13:49:31;7.10;99.90
7445;DHT22;3764;48.126;11.594;2023-04-03T13:52:00;7.00;99.90
7445;DHT22;3764;48.126;11.594;2023-04-03T13:54:32;7.00;99.90
7445;DHT22;3764;48.126;11.594;2023-04-03T13:57:00;6.80;99.90
7445;DHT22;3764;48.126;11.594;2023-04-03T13:59:30;6.70;99.90
7445;DHT22;3764;48.126;11.594;2023-04-03T14:02:13;6.60;99.90
7445;DHT22;3764;48.126;11.594;2023-04-03T14:04:50;6.50;99.90
7445;DHT22;3764;48.126;11.594;2023-04-03T14:07:20;6.50;99.90
7445;DHT22;3764;48.126;11.594;2023-04-03T14:09:48;6.50;99.90
7445;DHT22;3764;48.126;11.594;2023-04-03T14:12:17;6.60;99.90
7445;DHT22;3764;48.126;11.594;2023-04-03T14:14:45;6.80;99.90
7445;DHT22;3764;48.126;11.594;2023-04-03T14:17:15;6.90;99.90
7445;DHT22;3764;48.126;11.594;2023-04-03T14:19:43;7.00;99.90
7445;DHT22;3764;48.126;11.594;2023-04-03T14:22:15;7.10;99.90
7445;DHT22;3764;48.126;11.594;2023-04-03T14:24:44;7.20;99.90
7445;DHT22;3764;48.126;11.594;2023-04-03T14:27:16;7.40;99.90
7445;DHT22;3764;48.126;11.594;2023-04-03T14:29:44;7.60;99.90
7445;DHT22;3764;48.126;11.594;2023-04-03T14:32:12;7.80;99.90
7445;DHT22;3764;48.126;11.594;2023-04-03T14:34:40;8.00;99.90
7445;DHT22;3764;48.126;11.594;2023-04-03T14:37:11;8.20;99.70
7445;DHT22;3764;48.126;11.594;2023-04-03T14:39:38;8.20;99.10
7445;DHT22;3764;48.126;11.594;2023-04-03T14:42:12;8.10;98.60
7445;DHT22;3764;48.126;11.594;2023-04-03T14:44:39;8.10;98.10
7445;DHT22;3764;48.126;11.594;2023-04-03T14:47:10;7.90;97.80
7445;DHT22;3764;48.126;11.594;2023-04-03T14:49:37;7.60;98.50
7445;DHT22;3764;48.126;11.594;2023-04-03T14:52:05;7.50;98.70
7445;DHT22;3764;48.126;11.594;2023-04-03T14:54:32;7.50;99.40
7445;DHT22;3764;48.126;11.594;2023-04-03T14:57:00;7.30;99.00
7445;DHT22;3764;48.126;11.594;2023-04-03T14:59:30;7.30;99.00
7445;DHT22;3764;48.126;11.594;2023-04-03T15:01:58;7.30;99.70
7445;DHT22;3764;48.126;11.594;2023-04-03T15:04:25;7.20;98.70
7445;DHT22;3764;48.126;11.594;2023-04-03T15:06:53;7.20;99.40
7445;DHT22;3764;48.126;11.594;2023-04-03T15:09:22;7.20;98.80
7445;DHT22;3764;48.126;11.594;2023-04-03T15:11:51;7.20;98.60
7445;DHT22;3764;48.126;11.594;2023-04-03T15:14:18;7.20;98.40
7445;DHT22;3764;48.126;11.594;2023-04-03T15:16:47;7.20;97.90
7445;DHT22;3764;48.126;11.594;2023-04-03T15:19:15;7.00;97.40
7445;DHT22;3764;48.126;11.594;2023-04-03T15:21:42;6.90;96.90
7445;DHT22;3764;48.126;11.594;2023-04-03T15:24:09;6.70;96.60
7445;DHT22;3764;48.126;11.594;2023-04-03T15:26:37;6.70;96.40
7445;DHT22;3764;48.126;11.594;2023-04-03T15:29:05;6.70;96.90
7445;DHT22;3764;48.126;11.594;2023-04-03T15:31:32;6.70;96.40
7445;DHT22;3764;48.126;11.594;2023-04-03T15:34:00;6.60;96.80
7445;DHT22;3764;48.126;11.594;2023-04-03T15:36:27;6.70;96.50
7445;DHT22;3764;48.126;11.594;2023-04-03T15:38:55;6.60;95.50
7445;DHT22;3764;48.126;11.594;2023-04-03T15:41:22;6.70;95.00
7445;DHT22;3764;48.126;11.594;2023-04-03T15:43:49;6.70;96.00
7445;DHT22;3764;48.126;11.594;2023-04-03T15:46:16;6.70;96.20
7445;DHT22;3764;48.126;11.594;2023-04-03T15:48:43;6.60;96.80
7445;DHT22;3764;48.126;11.594;2023-04-03T15:51:12;6.70;96.10
7445;DHT22;3764;48.126;11.594;2023-04-03T15:53:39;6.70;95.70
7445;DHT22;3764;48.126;11.594;2023-04-03T15:56:06;6.50;94.80
7445;DHT22;3764;48.126;11.594;2023-04-03T15:58:35;6.50;95.20
7445;DHT22;3764;48.126;11.594;2023-04-03T16:01:02;6.40;95.30
7445;DHT22;3764;48.126;11.594;2023-04-03T16:03:29;6.40;95.30
7445;DHT22;3764;48.126;11.594;2023-04-03T16:05:57;6.40;95.60
7445;DHT22;3764;48.126;11.594;2023-04-03T16:08:25;6.40;95.40
7445;DHT22;3764;48.126;11.594;2023-04-03T16:10:52;6.40;95.10
7445;DHT22;3764;48.126;11.594;2023-04-03T16:13:20;6.30;95.10
7445;DHT22;3764;48.126;11.594;2023-04-03T16:15:47;6.30;95.90
7445;DHT22;3764;48.126;11.594;2023-04-03T16:18:14;6.20;94.80
7445;DHT22;3764;48.126;11.594;2023-04-03T16:20:44;6.10;95.10